createdAt,value
2018-10-02T00:00:04.404Z,6.47
2018-10-02T00:02:31.518Z,5.63
2018-10-02T00:04:58.673Z,6.00
2018-10-02T00:07:25.798Z,3.37
2018-10-02T00:09:52.890Z,4.00
2018-10-02T00:12:25.731Z,4.27
2018-10-02T00:14:52.807Z,4.80
2018-10-02T00:17:20.322Z,3.00
2018-10-02T00:19:47.425Z,5.67
2018-10-02T00:22:14.520Z,8.85
2018-10-02T00:24:41.630Z,2.90
2018-10-02T00:27:08.694Z,7.17
2018-10-02T00:29:36.045Z,4.83
2018-10-02T00:32:03.515Z,5.23
2018-10-02T00:34:30.562Z,6.67
2018-10-02T00:36:57.664Z,6.57
2018-10-02T00:39:24.765Z,5.93
2018-10-02T00:41:51.870Z,6.67
2018-10-02T00:44:19.020Z,12.70
2018-10-02T00:46:46.141Z,5.87
2018-10-02T00:49:13.294Z,5.07
2018-10-02T00:51:40.663Z,3.60
2018-10-02T00:54:07.755Z,6.53
2018-10-02T00:56:35.226Z,6.90
2018-10-02T00:59:02.332Z,11.90
2018-10-02T01:01:29.416Z,5.37
2018-10-02T01:03:56.532Z,6.67
2018-10-02T01:06:23.796Z,5.03
2018-10-02T01:08:50.865Z,6.60
2018-10-02T01:11:18.275Z,5.93
2018-10-02T01:13:45.574Z,8.73
2018-10-02T01:16:12.703Z,6.53
2018-10-02T01:18:39.884Z,4.50
2018-10-02T01:21:06.999Z,9.07
2018-10-02T01:23:35.097Z,7.07
2018-10-02T01:26:02.179Z,8.40
2018-10-02T01:28:29.313Z,4.77
2018-10-02T01:30:56.514Z,5.47
2018-10-02T01:33:23.723Z,6.87
2018-10-02T01:35:50.814Z,4.97
2018-10-02T01:38:18.253Z,6.73
2018-10-02T01:40:45.433Z,5.50
2018-10-02T01:43:12.552Z,7.77
2018-10-02T01:45:39.774Z,5.43
2018-10-02T01:48:06.887Z,6.00
2018-10-02T01:50:34.045Z,4.90
2018-10-02T01:53:01.154Z,5.53
2018-10-02T01:55:28.260Z,7.10
2018-10-02T01:57:55.338Z,5.73
2018-10-02T02:00:22.454Z,9.73
2018-10-02T02:02:49.582Z,5.70
2018-10-02T02:05:16.692Z,4.43
2018-10-02T02:07:43.870Z,5.53
2018-10-02T02:10:10.995Z,7.47
2018-10-02T02:12:38.123Z,8.47
2018-10-02T02:15:05.311Z,7.67
2018-10-02T02:17:32.911Z,11.67
2018-10-02T02:20:00.047Z,9.17
2018-10-02T02:22:27.247Z,8.47
2018-10-02T02:24:54.369Z,3.63
2018-10-02T02:27:21.517Z,8.37
2018-10-02T02:29:49.031Z,6.80
2018-10-02T02:32:16.156Z,4.07
2018-10-02T02:34:43.273Z,6.77
2018-10-02T02:37:10.469Z,5.20
2018-10-02T02:39:37.585Z,6.97
2018-10-02T02:42:04.808Z,5.37
2018-10-02T02:44:31.991Z,6.93
2018-10-02T02:47:04.878Z,8.70
2018-10-02T02:49:37.840Z,7.13
2018-10-02T02:52:04.969Z,9.23
2018-10-02T02:54:32.240Z,8.43
2018-10-02T02:56:59.385Z,6.23
2018-10-02T02:59:26.527Z,7.77
2018-10-02T03:01:53.639Z,11.37
2018-10-02T03:04:21.184Z,8.53
2018-10-02T03:06:48.365Z,6.33
2018-10-02T03:09:15.512Z,8.50
2018-10-02T03:11:42.600Z,9.37
2018-10-02T03:14:09.739Z,7.43
2018-10-02T03:16:36.935Z,7.70
2018-10-02T03:19:04.063Z,9.10
2018-10-02T03:21:31.232Z,10.50
2018-10-02T03:23:58.410Z,10.17
2018-10-02T03:26:25.535Z,7.87
2018-10-02T03:28:52.692Z,12.73
2018-10-02T03:31:19.772Z,12.23
2018-10-02T03:33:47.079Z,7.83
2018-10-02T03:36:14.196Z,11.60
2018-10-02T03:38:41.294Z,13.57
2018-10-02T03:41:08.433Z,9.07
2018-10-02T03:43:35.653Z,8.93
2018-10-02T03:46:02.758Z,10.97
2018-10-02T03:48:29.847Z,7.63
2018-10-02T03:50:57.041Z,6.70
2018-10-02T03:53:24.173Z,12.17
2018-10-02T03:55:51.269Z,6.33
2018-10-02T03:58:18.630Z,8.67
2018-10-02T04:00:45.796Z,5.63
2018-10-02T04:03:12.940Z,12.17
2018-10-02T04:05:40.035Z,7.43
2018-10-02T04:08:07.314Z,10.03
2018-10-02T04:10:34.791Z,10.67
2018-10-02T04:13:02.329Z,7.43
2018-10-02T04:15:29.672Z,7.13
2018-10-02T04:17:56.891Z,6.37
2018-10-02T04:20:24.096Z,6.17
2018-10-02T04:22:51.261Z,6.90
2018-10-02T04:25:18.450Z,11.90
2018-10-02T04:27:45.651Z,8.07
2018-10-02T04:30:12.794Z,7.90
2018-10-02T04:32:39.899Z,12.13
2018-10-02T04:35:07.300Z,8.63
2018-10-02T04:37:34.516Z,9.87
2018-10-02T04:40:01.738Z,10.10
2018-10-02T04:42:29.139Z,9.83
2018-10-02T04:44:56.308Z,14.57
2018-10-02T04:47:23.553Z,16.30
2018-10-02T04:49:50.699Z,8.87
2018-10-02T04:52:17.897Z,10.70
2018-10-02T04:54:45.098Z,10.37
2018-10-02T04:57:12.391Z,9.87
2018-10-02T04:59:39.546Z,11.67
2018-10-02T05:02:06.843Z,17.87
2018-10-02T05:04:34.053Z,8.80
2018-10-02T05:07:01.311Z,13.17
2018-10-02T05:09:28.497Z,11.13
2018-10-02T05:11:55.712Z,11.03
2018-10-02T05:14:22.872Z,15.27
2018-10-02T05:16:50.141Z,11.37
2018-10-02T05:19:17.443Z,14.40
2018-10-02T05:21:44.590Z,17.43
2018-10-02T05:24:11.900Z,13.80
2018-10-02T05:26:39.121Z,15.80
2018-10-02T05:29:06.260Z,17.13
2018-10-02T05:31:33.397Z,11.93
2018-10-02T05:34:00.781Z,17.83
2018-10-02T05:36:27.960Z,11.13
2018-10-02T05:38:55.213Z,14.43
2018-10-02T05:41:22.398Z,16.33
2018-10-02T05:43:49.628Z,16.83
2018-10-02T05:46:16.880Z,11.60
2018-10-02T05:48:44.346Z,13.83
2018-10-02T05:51:12.707Z,16.33
2018-10-02T05:53:39.921Z,14.28
2018-10-02T05:56:07.187Z,9.87
2018-10-02T05:58:34.622Z,10.97
2018-10-02T06:01:02.149Z,15.70
2018-10-02T06:03:29.250Z,13.90
2018-10-02T06:05:56.424Z,12.83
2018-10-02T06:08:23.664Z,13.63
2018-10-02T06:10:50.909Z,15.23
2018-10-02T06:13:18.002Z,7.73
2018-10-02T06:15:45.173Z,20.50
2018-10-02T06:18:12.309Z,12.33
2018-10-02T06:20:39.525Z,8.87
2018-10-02T06:23:06.650Z,11.73
2018-10-02T06:25:33.909Z,13.70
2018-10-02T06:28:01.158Z,11.37
2018-10-02T06:30:28.495Z,12.27
2018-10-02T06:32:55.630Z,8.90
2018-10-02T06:35:22.741Z,15.80
2018-10-02T06:37:50.144Z,15.30
2018-10-02T06:40:17.289Z,8.33
2018-10-02T06:42:44.462Z,12.23
2018-10-02T06:45:11.795Z,11.25
2018-10-02T06:47:38.873Z,8.30
2018-10-02T06:50:06.021Z,8.80
2018-10-02T06:52:33.434Z,10.72
2018-10-02T06:55:00.543Z,9.40
2018-10-02T06:57:27.748Z,9.40
2018-10-02T06:59:54.922Z,10.80
2018-10-02T07:02:22.087Z,8.77
2018-10-02T07:04:49.233Z,10.50
2018-10-02T07:07:16.433Z,8.63
2018-10-02T07:09:43.612Z,4.83
2018-10-02T07:12:10.755Z,8.70
2018-10-02T07:14:37.893Z,8.87
2018-10-02T07:17:05.303Z,7.37
2018-10-02T07:19:32.389Z,9.67
2018-10-02T07:21:59.509Z,10.85
2018-10-02T07:24:26.645Z,10.70
2018-10-02T07:26:53.952Z,9.95
2018-10-02T07:29:20.980Z,11.00
2018-10-02T07:31:48.113Z,14.13
2018-10-02T07:37:05.977Z,13.33
2018-10-02T07:39:33.262Z,10.32
2018-10-02T07:42:00.510Z,8.50
2018-10-02T07:44:27.687Z,10.25
2018-10-02T07:46:54.869Z,10.35
2018-10-02T07:49:22.014Z,11.65
2018-10-02T07:51:49.163Z,8.35
2018-10-02T07:54:16.355Z,12.95
2018-10-02T07:56:43.619Z,7.42
2018-10-02T07:59:10.706Z,8.53
2018-10-02T08:01:38.107Z,8.23
2018-10-02T08:04:05.399Z,12.83
2018-10-02T08:06:32.596Z,7.90
2018-10-02T08:08:59.803Z,9.28
2018-10-02T08:11:26.965Z,9.10
2018-10-02T08:13:54.149Z,10.45
2018-10-02T08:16:21.331Z,11.38
2018-10-02T08:18:48.901Z,5.97
2018-10-02T08:21:16.170Z,13.13
2018-10-02T08:23:43.658Z,6.33
2018-10-02T08:26:10.870Z,9.83
2018-10-02T08:28:38.112Z,9.65
2018-10-02T08:31:05.261Z,10.88
2018-10-02T08:33:32.685Z,7.95
2018-10-02T08:36:00.098Z,8.45
2018-10-02T08:38:27.243Z,6.40
2018-10-02T08:40:55.171Z,13.15
2018-10-02T08:43:22.560Z,6.53
2018-10-02T08:45:49.938Z,12.65
2018-10-02T08:48:17.136Z,11.48
2018-10-02T08:50:44.385Z,6.83
2018-10-02T08:53:11.611Z,12.18
2018-10-02T08:55:39.018Z,9.05
2018-10-02T08:58:06.245Z,7.42
2018-10-02T09:00:33.428Z,11.65
2018-10-02T09:03:00.723Z,12.25
2018-10-02T09:05:28.255Z,12.05
2018-10-02T09:07:55.514Z,7.40
2018-10-02T09:10:22.979Z,13.15
2018-10-02T09:12:50.315Z,13.25
2018-10-02T09:15:17.498Z,10.82
2018-10-02T09:17:44.815Z,11.33
2018-10-02T09:20:12.342Z,9.28
2018-10-02T09:22:39.995Z,8.38
2018-10-02T09:25:07.207Z,10.28
2018-10-02T09:27:34.799Z,11.75
2018-10-02T09:30:07.967Z,8.50
2018-10-02T09:32:40.986Z,11.68
2018-10-02T09:35:13.877Z,7.78
2018-10-02T09:37:47.113Z,9.58
2018-10-02T09:40:20.327Z,10.93
2018-10-02T09:42:53.375Z,8.75
2018-10-02T09:45:20.648Z,9.83
2018-10-02T09:47:47.777Z,8.78
2018-10-02T09:50:15.363Z,6.78
2018-10-02T09:52:42.482Z,15.60
2018-10-02T09:55:09.641Z,6.15
2018-10-02T09:57:37.002Z,10.65
2018-10-02T10:00:04.456Z,8.50
2018-10-02T10:02:35.220Z,9.73
2018-10-02T10:05:02.744Z,7.95
2018-10-02T10:07:30.876Z,8.78
2018-10-02T10:09:58.044Z,11.97
2018-10-02T10:12:25.296Z,5.37
2018-10-02T10:14:52.564Z,7.12
2018-10-02T10:17:19.847Z,9.93
2018-10-02T10:19:47.286Z,6.58
2018-10-02T10:22:14.575Z,6.83
2018-10-02T10:24:43.054Z,5.50
2018-10-02T10:27:10.582Z,8.25
2018-10-02T10:29:38.317Z,9.45
2018-10-02T10:32:05.637Z,7.72
2018-10-02T10:34:32.912Z,12.85
2018-10-02T10:37:00.330Z,12.50
2018-10-02T10:39:27.743Z,11.75
2018-10-02T10:41:55.274Z,8.03
2018-10-02T10:44:22.714Z,7.35
2018-10-02T10:46:50.119Z,8.08
2018-10-02T10:49:17.572Z,13.43
2018-10-02T10:51:45.079Z,8.40
2018-10-02T10:54:12.514Z,7.90
2018-10-02T10:56:39.956Z,9.50
2018-10-02T10:59:07.441Z,10.78
2018-10-02T11:01:34.829Z,13.98
2018-10-02T11:04:02.316Z,7.30
2018-10-02T11:06:29.709Z,7.90
2018-10-02T11:08:57.189Z,4.28
2018-10-02T11:11:24.687Z,12.25
2018-10-02T11:13:52.145Z,9.35
2018-10-02T11:16:19.682Z,7.67
2018-10-02T11:18:47.076Z,7.70
2018-10-02T11:21:14.235Z,6.15
2018-10-02T11:23:41.449Z,7.35
2018-10-02T11:26:08.589Z,14.15
2018-10-02T11:28:35.782Z,9.15
2018-10-02T11:31:02.998Z,10.87
2018-10-02T11:33:30.233Z,6.78
2018-10-02T11:35:57.524Z,6.60
2018-10-02T11:38:24.746Z,8.78
2018-10-02T11:40:52.041Z,8.23
2018-10-02T11:43:19.288Z,7.28
2018-10-02T11:45:46.494Z,8.28
2018-10-02T11:48:13.685Z,9.15
2018-10-02T11:50:40.895Z,8.10
2018-10-02T11:53:08.069Z,5.92
2018-10-02T11:55:35.276Z,8.13
2018-10-02T11:58:02.502Z,5.15
2018-10-02T12:00:29.783Z,4.12
2018-10-02T12:02:56.927Z,4.60
2018-10-02T12:05:24.134Z,7.60
2018-10-02T12:07:51.260Z,6.50
2018-10-02T12:10:18.397Z,8.00
2018-10-02T12:12:45.809Z,7.27
2018-10-02T12:15:13.089Z,8.03
2018-10-02T12:17:40.338Z,6.30
2018-10-02T12:20:07.572Z,8.48
2018-10-02T12:22:34.870Z,7.85
2018-10-02T12:25:02.152Z,12.33
2018-10-02T12:27:29.421Z,6.72
2018-10-02T12:29:56.608Z,6.47
2018-10-02T12:32:23.822Z,6.92
2018-10-02T12:34:50.965Z,6.95
2018-10-02T12:37:18.153Z,7.12
2018-10-02T12:39:45.411Z,4.62
2018-10-02T12:42:12.558Z,9.35
2018-10-02T12:44:39.768Z,7.83
2018-10-02T12:47:07.009Z,6.97
2018-10-02T12:49:34.244Z,4.70
2018-10-02T12:52:01.458Z,4.28
2018-10-02T12:54:28.571Z,5.83
2018-10-02T12:56:55.874Z,3.02
2018-10-02T12:59:23.193Z,3.40
2018-10-02T13:01:50.275Z,5.70
2018-10-02T13:04:17.456Z,6.87
2018-10-02T13:06:44.661Z,4.20
2018-10-02T13:09:11.820Z,5.53
2018-10-02T13:11:39.087Z,4.58
2018-10-02T13:14:06.325Z,5.72
2018-10-02T13:16:33.536Z,7.13
2018-10-02T13:19:00.790Z,6.05
2018-10-02T13:21:28.025Z,7.05
2018-10-02T13:23:55.306Z,6.95
2018-10-02T13:26:22.548Z,6.35
2018-10-02T13:28:49.734Z,4.45
2018-10-02T13:31:16.960Z,5.50
2018-10-02T13:33:44.396Z,10.15
2018-10-02T13:36:11.666Z,8.85
2018-10-02T13:38:40.048Z,8.20
2018-10-02T13:41:07.334Z,7.53
2018-10-02T13:43:34.647Z,11.80
2018-10-02T13:46:01.816Z,7.00
2018-10-02T13:48:30.250Z,7.42
2018-10-02T13:50:58.442Z,8.28
2018-10-02T13:53:25.660Z,7.83
2018-10-02T13:55:52.904Z,7.90
2018-10-02T13:58:20.107Z,5.83
2018-10-02T14:00:47.231Z,7.80
2018-10-02T14:03:14.435Z,9.15
2018-10-02T14:05:41.652Z,9.25
2018-10-02T14:08:08.905Z,6.67
2018-10-02T14:10:36.016Z,5.27
2018-10-02T14:13:03.212Z,8.63
2018-10-02T14:15:30.440Z,7.30
2018-10-02T14:17:57.780Z,6.30
2018-10-02T14:20:25.021Z,8.30
2018-10-02T14:22:52.297Z,7.27
2018-10-02T14:25:19.671Z,7.90
2018-10-02T14:27:46.838Z,9.40
2018-10-02T14:30:14.038Z,9.88
2018-10-02T14:32:41.260Z,11.87
2018-10-02T14:35:08.437Z,8.23
2018-10-02T14:37:35.699Z,8.05
2018-10-02T14:40:02.858Z,9.35
2018-10-02T14:42:30.084Z,9.83
2018-10-02T14:44:57.258Z,6.90
2018-10-02T14:47:24.495Z,9.60
2018-10-02T14:49:51.726Z,7.90
2018-10-02T14:52:18.946Z,9.00
2018-10-02T14:54:46.162Z,8.57
2018-10-02T14:57:13.357Z,7.83
2018-10-02T14:59:40.508Z,6.30
2018-10-02T15:02:07.697Z,6.33
2018-10-02T15:04:34.863Z,6.37
2018-10-02T15:07:02.033Z,7.12
2018-10-02T15:09:29.185Z,7.00
2018-10-02T15:11:56.420Z,5.83
2018-10-02T15:14:23.714Z,5.40
2018-10-02T15:16:50.976Z,6.83
2018-10-02T15:19:18.218Z,6.80
2018-10-02T15:21:45.355Z,6.43
2018-10-02T15:24:12.638Z,6.62
2018-10-02T15:26:39.848Z,9.83
2018-10-02T15:29:07.063Z,8.83
2018-10-02T15:31:34.466Z,5.30
2018-10-02T15:34:02.166Z,6.63
2018-10-02T15:36:29.440Z,7.73
2018-10-02T15:38:56.922Z,6.57
2018-10-02T15:41:24.339Z,6.50
2018-10-02T15:43:51.956Z,8.35
2018-10-02T15:46:19.202Z,6.23
2018-10-02T15:48:46.328Z,6.73
2018-10-02T15:51:13.485Z,6.20
2018-10-02T15:53:40.705Z,9.90
2018-10-02T15:56:07.982Z,9.70
2018-10-02T15:58:35.182Z,25.57
2018-10-02T16:01:02.413Z,7.03
2018-10-02T16:03:29.761Z,5.47
2018-10-02T16:05:57.269Z,9.30
2018-10-02T16:08:24.757Z,5.40
2018-10-02T16:10:51.923Z,6.67
2018-10-02T16:13:19.192Z,7.33
2018-10-02T16:15:46.670Z,7.30
2018-10-02T16:18:14.225Z,8.45
2018-10-02T16:20:41.655Z,6.23
2018-10-02T16:23:09.064Z,8.40
2018-10-02T16:25:36.259Z,4.83
2018-10-02T16:28:03.588Z,4.97
2018-10-02T16:30:30.997Z,7.33
2018-10-02T16:32:58.514Z,7.00
2018-10-02T16:35:25.928Z,8.40
2018-10-02T16:37:53.338Z,6.55
2018-10-02T16:40:20.906Z,5.03
2018-10-02T16:42:48.344Z,9.00
2018-10-02T16:45:16.116Z,5.03
2018-10-02T16:47:43.602Z,4.00
2018-10-02T16:50:11.129Z,6.97
2018-10-02T16:52:38.636Z,4.42
2018-10-02T16:55:05.984Z,6.60
2018-10-02T16:57:33.400Z,5.27
2018-10-02T17:00:00.638Z,6.85
2018-10-02T17:02:28.020Z,4.20
2018-10-02T17:04:55.363Z,5.45
2018-10-02T17:07:22.512Z,5.62
2018-10-02T17:09:49.698Z,7.22
2018-10-02T17:12:16.899Z,6.47
2018-10-02T17:14:44.392Z,10.13
2018-10-02T17:17:11.820Z,6.22
2018-10-02T17:19:39.334Z,9.30
2018-10-02T17:22:06.469Z,4.75
2018-10-02T17:24:33.828Z,6.05
2018-10-02T17:27:01.281Z,4.73
2018-10-02T17:29:28.434Z,5.15
2018-10-02T17:31:55.726Z,6.03
2018-10-02T17:34:23.270Z,5.85
2018-10-02T17:36:50.698Z,7.67
2018-10-02T17:39:18.141Z,7.07
2018-10-02T17:41:45.287Z,7.78
2018-10-02T17:44:12.695Z,8.15
2018-10-02T17:46:40.084Z,6.87
2018-10-02T17:49:07.386Z,7.27
2018-10-02T17:51:34.517Z,6.13
2018-10-02T17:54:01.989Z,5.42
2018-10-02T17:56:29.513Z,7.80
2018-10-02T17:58:56.803Z,5.80
2018-10-02T18:01:23.945Z,6.22
2018-10-02T18:03:51.429Z,6.93
2018-10-02T18:06:19.906Z,5.97
2018-10-02T18:08:47.205Z,6.33
2018-10-02T18:11:14.542Z,4.73
2018-10-02T18:13:42.322Z,5.50
2018-10-02T18:16:09.472Z,6.42
2018-10-02T18:18:37.033Z,5.53
2018-10-02T18:21:04.445Z,6.43
2018-10-02T18:23:31.883Z,5.17
2018-10-02T18:25:59.384Z,7.73
2018-10-02T18:28:26.821Z,5.47
2018-10-02T18:30:54.733Z,5.90
2018-10-02T18:33:22.065Z,9.55
2018-10-02T18:35:49.547Z,6.00
2018-10-02T18:38:17.032Z,7.70
2018-10-02T18:40:44.484Z,7.03
2018-10-02T18:43:12.154Z,7.50
2018-10-02T18:45:39.418Z,8.13
2018-10-02T18:48:07.230Z,7.25
2018-10-02T18:50:34.473Z,6.28
2018-10-02T18:53:01.742Z,8.75
2018-10-02T18:55:29.264Z,7.92
2018-10-02T18:57:56.718Z,9.00
2018-10-02T19:00:24.276Z,10.23
2018-10-02T19:02:51.461Z,10.60
2018-10-02T19:05:18.672Z,8.30
2018-10-02T19:07:46.305Z,11.13
2018-10-02T19:10:13.974Z,10.13
2018-10-02T19:12:41.504Z,11.50
2018-10-02T19:15:09.407Z,10.70
2018-10-02T19:17:36.840Z,9.38
2018-10-02T19:20:10.011Z,12.27
2018-10-02T19:22:37.513Z,12.35
2018-10-02T19:25:10.682Z,9.67
2018-10-02T19:27:38.143Z,11.18
2018-10-02T19:30:11.410Z,13.28
2018-10-02T19:32:38.849Z,12.80
2018-10-02T19:35:06.212Z,11.57
2018-10-02T19:37:39.491Z,12.98
2018-10-02T19:40:06.869Z,12.77
2018-10-02T19:42:34.641Z,13.38
2018-10-02T19:45:07.851Z,11.03
2018-10-02T19:47:35.375Z,14.33
2018-10-02T19:50:02.800Z,12.77
2018-10-02T19:52:30.272Z,13.97
2018-10-02T19:54:57.745Z,14.73
2018-10-02T19:57:25.189Z,16.27
2018-10-02T19:59:52.611Z,12.35
2018-10-02T20:02:20.042Z,11.95
2018-10-02T20:04:47.554Z,19.40
2018-10-02T20:07:15.016Z,14.68
2018-10-02T20:09:42.612Z,16.10
2018-10-02T20:12:09.987Z,13.65
2018-10-02T20:14:37.380Z,15.53
2018-10-02T20:17:04.931Z,13.30
2018-10-02T20:19:32.286Z,16.10
2018-10-02T20:21:59.797Z,13.43
2018-10-02T20:24:27.182Z,17.92
2018-10-02T20:26:54.348Z,16.50
2018-10-02T20:29:21.707Z,17.35
2018-10-02T20:31:50.560Z,21.70
2018-10-02T20:34:17.798Z,19.32
2018-10-02T20:36:45.072Z,21.20
2018-10-02T20:39:12.563Z,12.40
2018-10-02T20:41:39.800Z,16.40
2018-10-02T20:44:07.443Z,18.80
2018-10-02T20:46:34.716Z,17.75
2018-10-02T20:49:02.185Z,18.00
2018-10-02T20:51:29.760Z,19.97
2018-10-02T20:53:57.080Z,13.18
2018-10-02T20:56:24.680Z,15.90
2018-10-02T20:58:51.988Z,17.43
2018-10-02T21:01:19.376Z,17.82
2018-10-02T21:03:47.356Z,21.42
2018-10-02T21:06:14.674Z,18.00
2018-10-02T21:08:42.177Z,14.93
2018-10-02T21:11:09.640Z,16.15
2018-10-02T21:13:36.891Z,18.37
2018-10-02T21:16:04.221Z,16.40
2018-10-02T21:18:31.639Z,20.43
2018-10-02T21:20:58.884Z,16.07
2018-10-02T21:23:26.588Z,21.25
2018-10-02T21:25:54.182Z,18.17
2018-10-02T21:28:21.425Z,20.20
2018-10-02T21:30:48.637Z,15.25
2018-10-02T21:33:15.898Z,16.50
2018-10-02T21:35:43.300Z,17.27
2018-10-02T21:38:10.473Z,18.12
2018-10-02T21:40:37.853Z,12.53
2018-10-02T21:43:05.183Z,17.10
2018-10-02T21:45:32.324Z,14.53
2018-10-02T21:47:59.510Z,14.47
2018-10-02T21:50:26.611Z,16.00
2018-10-02T21:52:53.905Z,17.52
2018-10-02T21:55:21.121Z,14.93
2018-10-02T21:57:48.368Z,18.47
2018-10-02T22:00:15.579Z,18.53
2018-10-02T22:02:42.876Z,19.23
2018-10-02T22:05:10.037Z,17.00
2018-10-02T22:07:37.313Z,17.07
2018-10-02T22:10:04.465Z,11.30
2018-10-02T22:12:31.924Z,19.07
2018-10-02T22:14:59.024Z,13.60
2018-10-02T22:17:26.185Z,13.80
2018-10-02T22:19:53.369Z,13.13
2018-10-02T22:22:20.529Z,19.95
2018-10-02T22:24:47.659Z,17.57
2018-10-02T22:27:15.624Z,14.33
2018-10-02T22:29:42.807Z,15.00
2018-10-02T22:32:09.980Z,15.35
2018-10-02T22:34:37.324Z,13.03
2018-10-02T22:37:04.548Z,11.10
2018-10-02T22:39:31.853Z,15.38
2018-10-02T22:41:59.069Z,16.37
2018-10-02T22:44:26.420Z,11.85
2018-10-02T22:46:53.864Z,14.35
2018-10-02T22:49:20.957Z,12.05
2018-10-02T22:51:48.421Z,16.57
2018-10-02T22:54:15.595Z,16.50
2018-10-02T22:56:42.820Z,13.48
2018-10-02T22:59:09.929Z,21.37
2018-10-02T23:01:37.088Z,13.40
2018-10-02T23:04:04.284Z,22.30
2018-10-02T23:06:31.397Z,17.17
2018-10-02T23:08:58.534Z,13.32
2018-10-02T23:11:25.808Z,21.23
2018-10-02T23:13:52.970Z,13.95
2018-10-02T23:16:20.216Z,16.57
2018-10-02T23:18:47.455Z,13.88
2018-10-02T23:21:14.605Z,16.02
2018-10-02T23:23:41.863Z,15.55
2018-10-02T23:26:09.005Z,13.08
2018-10-02T23:28:36.126Z,15.00
2018-10-02T23:31:03.291Z,17.10
2018-10-02T23:33:30.444Z,15.20
2018-10-02T23:35:57.562Z,19.83
2018-10-02T23:38:24.739Z,21.07
2018-10-02T23:40:51.849Z,19.37
2018-10-02T23:43:19.043Z,9.93
2018-10-02T23:45:46.192Z,15.37
2018-10-02T23:48:13.300Z,14.00
2018-10-02T23:50:40.488Z,17.77
2018-10-02T23:53:07.613Z,17.77
2018-10-02T23:55:34.795Z,14.13
2018-10-02T23:58:01.987Z,21.97
